Time;durP1;ratioP1;P1;durP2;ratioP2;P2;SDS_P1;SDS_P2;PMS_P1;PMS_P2;Temp;Humidity;BMP_temperature;BMP_pressure;BME280_temperature;BME280_humidity;BME280_pressure;Samples;Min_cycle;Max_cycle;Signal;HPM_P1;HPM_P2
2022/09/06 00:01:41;;;;;;;;;;;25.50;45.60;;;;;;1533961;76;761;-66
2022/09/06 00:03:44;;;;;;;;;;;25.50;45.70;;;;;;1517079;77;812;-67
2022/09/06 00:05:45;;;;;;;;;;;25.50;45.60;;;;;;1510401;77;1166;-65
2022/09/06 00:07:47;;;;;;;;;;;25.40;45.70;;;;;;1506220;77;1713;-65
2022/09/06 00:09:49;;;;;;;;;;;25.50;45.70;;;;;;1492375;77;791;-63
2022/09/06 00:11:51;;;;;;;;;;;25.50;45.70;;;;;;1516307;76;1941;-65
2022/09/06 00:13:53;;;;;;;;;;;25.50;45.60;;;;;;1531936;77;801;-66
2022/09/06 00:15:55;;;;;;;;;;;25.50;45.70;;;;;;1528770;76;1151;-66
2022/09/06 00:18:00;;;;;;;;;;;25.50;45.70;;;;;;1507898;77;812;-67
2022/09/06 00:20:03;;;;;;;;;;;25.40;45.70;;;;;;1508464;77;1569;-65
2022/09/06 00:22:06;;;;;;;;;;;25.40;45.80;;;;;;1537529;76;790;-67
2022/09/06 00:24:08;;;;;;;;;;;25.50;45.70;;;;;;1531794;76;2349;-64
2022/09/06 00:26:10;;;;;;;;;;;25.50;45.70;;;;;;1511081;77;1300;-64
2022/09/06 00:28:12;;;;;;;;;;;25.50;45.70;;;;;;1518981;77;765;-66
2022/09/06 00:30:14;;;;;;;;;;;25.50;45.80;;;;;;1537597;76;670;-66
2022/09/06 00:32:16;;;;;;;;;;;25.40;45.80;;;;;;1540207;76;1929;-67
2022/09/06 00:34:18;;;;;;;;;;;25.40;45.80;;;;;;1510452;77;1332;-67
2022/09/06 00:36:20;;;;;;;;;;;25.50;45.80;;;;;;1545263;76;1154;-66
2022/09/06 00:38:22;;;;;;;;;;;25.40;45.80;;;;;;1514125;77;722;-67
2022/09/06 00:40:24;;;;;;;;;;;25.50;45.80;;;;;;1534450;76;798;-67
2022/09/06 00:42:25;;;;;;;;;;;25.50;45.80;;;;;;1501276;77;717;-67
2022/09/06 00:44:27;;;;;;;;;;;25.40;45.80;;;;;;1515627;77;802;-68
2022/09/06 00:46:30;;;;;;;;;;;25.40;45.70;;;;;;1506372;77;1173;-68
2022/09/06 00:48:31;;;;;;;;;;;25.40;45.80;;;;;;1503686;77;1522;-67
2022/09/06 00:50:33;;;;;;;;;;;25.40;45.80;;;;;;1531480;76;810;-68
2022/09/06 00:52:35;;;;;;;;;;;25.40;45.90;;;;;;1533155;76;1942;-66
2022/09/06 00:54:37;;;;;;;;;;;25.40;45.80;;;;;;1524252;76;794;-67
2022/09/06 00:56:40;;;;;;;;;;;25.40;45.90;;;;;;1532451;76;1162;-67
2022/09/06 00:58:42;;;;;;;;;;;25.40;45.80;;;;;;1502222;77;769;-67
2022/09/06 01:00:44;;;;;;;;;;;25.40;45.90;;;;;;1506274;77;722;-66
2022/09/06 01:02:47;;;;;;;;;;;25.50;45.90;;;;;;1526320;76;1588;-66
2022/09/06 01:04:50;;;;;;;;;;;25.40;45.90;;;;;;1515865;77;771;-68
2022/09/06 01:07:10;;;;;;;;;;;25.40;45.90;;;;;;1507599;77;1144;-66
2022/09/06 01:09:13;;;;;;;;;;;25.40;45.90;;;;;;1525575;76;818;-65
2022/09/06 01:11:17;;;;;;;;;;;25.40;45.90;;;;;;1517594;76;648;-68
2022/09/06 01:13:30;;;;;;;;;;;25.40;45.90;;;;;;1530365;76;1936;-66
2022/09/06 01:15:36;;;;;;;;;;;25.40;45.90;;;;;;1507892;76;1159;-67
2022/09/06 01:17:58;;;;;;;;;;;25.40;45.90;;;;;;1515767;76;1920;-66
2022/09/06 01:20:08;;;;;;;;;;;25.40;45.90;;;;;;1525064;76;1913;-69
2022/09/06 01:22:21;;;;;;;;;;;25.40;46.00;;;;;;1525261;76;802;-67
2022/09/06 01:24:41;;;;;;;;;;;25.40;46.00;;;;;;1517804;76;1536;-66
2022/09/06 01:27:01;;;;;;;;;;;25.30;46.00;;;;;;1520854;76;1151;-67
2022/09/06 01:29:04;;;;;;;;;;;25.40;46.00;;;;;;1524689;76;965;-66
2022/09/06 01:31:24;;;;;;;;;;;25.40;46.00;;;;;;1518287;76;1622;-66
2022/09/06 01:33:33;;;;;;;;;;;25.40;46.00;;;;;;1517002;76;1926;-67
2022/09/06 01:35:36;;;;;;;;;;;25.40;46.00;;;;;;1528959;76;1298;-66
2022/09/06 01:37:38;;;;;;;;;;;25.40;46.00;;;;;;1529461;76;747;-66
2022/09/06 01:39:40;;;;;;;;;;;25.40;46.00;;;;;;1534275;76;724;-65
2022/09/06 01:41:42;;;;;;;;;;;25.40;46.10;;;;;;1525868;76;736;-65
2022/09/06 01:43:45;;;;;;;;;;;25.30;46.00;;;;;;1512877;76;860;-66
2022/09/06 01:45:52;;;;;;;;;;;25.40;46.00;;;;;;1528068;76;1562;-66
2022/09/06 01:47:55;;;;;;;;;;;25.40;46.10;;;;;;1523745;76;2050;-66
2022/09/06 01:49:59;;;;;;;;;;;25.40;46.00;;;;;;1527559;76;2075;-66
2022/09/06 01:52:17;;;;;;;;;;;25.30;46.00;;;;;;1527219;76;1932;-67
2022/09/06 01:54:24;;;;;;;;;;;25.40;46.00;;;;;;1516519;76;732;-66
2022/09/06 01:56:30;;;;;;;;;;;25.40;46.00;;;;;;1519345;76;1154;-66
2022/09/06 01:58:49;;;;;;;;;;;25.40;46.00;;;;;;1516726;76;1565;-66
2022/09/06 02:00:52;;;;;;;;;;;25.40;46.00;;;;;;1523665;76;1972;-69
2022/09/06 02:03:05;;;;;;;;;;;25.40;46.10;;;;;;1522709;76;1998;-66
2022/09/06 02:05:08;;;;;;;;;;;25.40;46.10;;;;;;1520268;76;795;-67
2022/09/06 02:07:12;;;;;;;;;;;25.30;46.10;;;;;;1526354;75;1092;-66
2022/09/06 02:09:17;;;;;;;;;;;25.30;46.10;;;;;;1538946;76;2030;-68
2022/09/06 02:11:19;;;;;;;;;;;25.30;46.10;;;;;;1525849;76;828;-66
2022/09/06 02:13:21;;;;;;;;;;;25.40;46.10;;;;;;1518925;76;1938;-66
2022/09/06 02:15:24;;;;;;;;;;;25.40;46.10;;;;;;1529089;76;1161;-67
2022/09/06 02:17:27;;;;;;;;;;;25.40;46.10;;;;;;1529905;76;719;-64
2022/09/06 02:19:47;;;;;;;;;;;25.40;46.10;;;;;;1520128;76;832;-69
2022/09/06 02:21:49;;;;;;;;;;;25.30;46.10;;;;;;1534889;76;834;-67
2022/09/06 02:23:51;;;;;;;;;;;25.30;46.10;;;;;;1511768;76;815;-68
2022/09/06 02:25:57;;;;;;;;;;;25.40;46.10;;;;;;1523122;76;1141;-69
2022/09/06 02:27:59;;;;;;;;;;;25.40;46.10;;;;;;1505442;76;1557;-71
2022/09/06 02:30:05;;;;;;;;;;;25.40;46.20;;;;;;1521147;76;740;-71
2022/09/06 02:32:09;;;;;;;;;;;25.40;46.20;;;;;;1512168;76;1199;-68
2022/09/06 02:34:13;;;;;;;;;;;25.30;46.10;;;;;;1522378;76;786;-70
2022/09/06 02:36:15;;;;;;;;;;;25.40;46.20;;;;;;1523523;76;1147;-70
2022/09/06 02:38:17;;;;;;;;;;;25.40;46.10;;;;;;1530507;76;672;-69
2022/09/06 02:40:19;;;;;;;;;;;25.30;46.10;;;;;;1531452;76;722;-69
2022/09/06 02:42:21;;;;;;;;;;;25.40;46.10;;;;;;1525887;76;1658;-70
2022/09/06 02:44:22;;;;;;;;;;;25.40;46.20;;;;;;1518155;76;778;-71
2022/09/06 02:46:24;;;;;;;;;;;25.30;46.10;;;;;;1519156;76;1170;-70
2022/09/06 02:48:26;;;;;;;;;;;25.40;46.10;;;;;;1527140;76;724;-68
2022/09/06 02:50:28;;;;;;;;;;;25.40;46.10;;;;;;1519324;76;822;-70
2022/09/06 02:52:30;;;;;;;;;;;25.40;46.10;;;;;;1514371;76;1936;-70
2022/09/06 02:54:32;;;;;;;;;;;25.40;46.10;;;;;;1525501;76;767;-69
2022/09/06 02:56:35;;;;;;;;;;;25.40;46.10;;;;;;1528080;76;1619;-69
2022/09/06 02:58:37;;;;;;;;;;;25.40;46.10;;;;;;1517794;76;596;-68
2022/09/06 03:00:39;;;;;;;;;;;25.40;46.10;;;;;;1525800;76;775;-69
2022/09/06 03:02:41;;;;;;;;;;;25.40;46.10;;;;;;1521953;76;755;-70
2022/09/06 03:04:43;;;;;;;;;;;25.40;46.20;;;;;;1516654;76;677;-69
2022/09/06 03:06:44;;;;;;;;;;;25.30;46.10;;;;;;1514423;76;1173;-69
2022/09/06 03:08:46;;;;;;;;;;;25.30;46.20;;;;;;1508703;76;1552;-71
2022/09/06 03:10:48;;;;;;;;;;;25.40;46.10;;;;;;1522231;76;784;-70
2022/09/06 03:12:51;;;;;;;;;;;25.40;46.10;;;;;;1514014;76;1933;-68
2022/09/06 03:14:52;;;;;;;;;;;25.40;46.10;;;;;;1522783;76;659;-70
2022/09/06 03:16:54;;;;;;;;;;;25.40;46.10;;;;;;1519479;76;1120;-69
2022/09/06 03:18:56;;;;;;;;;;;25.40;46.10;;;;;;1534334;76;794;-70
2022/09/06 03:20:58;;;;;;;;;;;25.40;46.20;;;;;;1519923;76;825;-70
2022/09/06 03:23:00;;;;;;;;;;;25.40;46.20;;;;;;1527398;76;1531;-70
2022/09/06 03:25:02;;;;;;;;;;;25.40;46.20;;;;;;1522630;76;808;-70
2022/09/06 03:27:04;;;;;;;;;;;25.30;46.10;;;;;;1524361;76;1136;-70
2022/09/06 03:29:06;;;;;;;;;;;25.30;46.20;;;;;;1518050;76;799;-70
2022/09/06 03:31:07;;;;;;;;;;;25.40;46.20;;;;;;1519786;76;716;-70
2022/09/06 03:33:09;;;;;;;;;;;25.40;46.20;;;;;;1522389;76;1949;-69
2022/09/06 03:35:11;;;;;;;;;;;25.40;46.20;;;;;;1525130;76;806;-70
2022/09/06 03:37:13;;;;;;;;;;;25.30;46.20;;;;;;1515266;76;1617;-70
2022/09/06 03:39:15;;;;;;;;;;;25.40;46.20;;;;;;1527397;76;799;-70
2022/09/06 03:41:17;;;;;;;;;;;25.40;46.20;;;;;;1537052;76;795;-70
2022/09/06 03:43:19;;;;;;;;;;;25.40;46.30;;;;;;1530221;76;802;-70
2022/09/06 03:45:21;;;;;;;;;;;25.30;46.30;;;;;;1515836;75;1137;-70
2022/09/06 03:47:23;;;;;;;;;;;25.30;46.30;;;;;;1527335;76;823;-69
2022/09/06 03:49:25;;;;;;;;;;;25.30;46.30;;;;;;1526760;76;735;-70
2022/09/06 03:51:27;;;;;;;;;;;25.30;46.30;;;;;;1528015;76;1440;-70
2022/09/06 03:53:29;;;;;;;;;;;25.30;46.30;;;;;;1521939;76;1949;-69
2022/09/06 03:55:31;;;;;;;;;;;25.30;46.30;;;;;;1516387;76;1172;-70
2022/09/06 03:57:33;;;;;;;;;;;25.20;46.30;;;;;;1513769;76;823;-69
2022/09/06 03:59:34;;;;;;;;;;;25.30;46.40;;;;;;1522406;76;799;-70
2022/09/06 04:01:36;;;;;;;;;;;25.30;46.40;;;;;;1524482;76;983;-70
2022/09/06 04:03:38;;;;;;;;;;;25.30;46.30;;;;;;1517929;76;769;-66
2022/09/06 04:05:40;;;;;;;;;;;25.30;46.40;;;;;;1520744;76;1547;-71
2022/09/06 04:07:42;;;;;;;;;;;25.30;46.40;;;;;;1523466;76;910;-69
2022/09/06 04:09:44;;;;;;;;;;;25.30;46.40;;;;;;1521401;76;679;-70
2022/09/06 04:11:46;;;;;;;;;;;25.20;46.40;;;;;;1518259;76;720;-70
2022/09/06 04:13:48;;;;;;;;;;;25.20;46.50;;;;;;1537490;76;1944;-71
2022/09/06 04:15:51;;;;;;;;;;;25.20;46.40;;;;;;1529606;76;1136;-70
2022/09/06 04:17:53;;;;;;;;;;;25.20;46.50;;;;;;1516374;76;709;-70
2022/09/06 04:19:55;;;;;;;;;;;25.30;46.50;;;;;;1521611;76;1571;-70
2022/09/06 04:21:56;;;;;;;;;;;25.20;46.50;;;;;;1532199;76;703;-70
2022/09/06 04:23:59;;;;;;;;;;;25.10;46.50;;;;;;1526592;76;794;-69
2022/09/06 04:26:00;;;;;;;;;;;25.20;46.50;;;;;;1513956;76;1114;-70
2022/09/06 04:28:02;;;;;;;;;;;25.20;46.50;;;;;;1523109;76;782;-69
2022/09/06 04:30:04;;;;;;;;;;;25.20;46.50;;;;;;1523302;76;847;-70
2022/09/06 04:32:06;;;;;;;;;;;25.30;46.50;;;;;;1525510;76;791;-71
2022/09/06 04:34:08;;;;;;;;;;;25.30;46.50;;;;;;1529772;76;1929;-71
2022/09/06 04:36:10;;;;;;;;;;;25.20;46.50;;;;;;1523382;76;1189;-71
2022/09/06 04:38:12;;;;;;;;;;;25.30;46.50;;;;;;1531211;76;762;-71
2022/09/06 04:40:14;;;;;;;;;;;25.30;46.50;;;;;;1527201;76;733;-71
2022/09/06 04:42:16;;;;;;;;;;;25.30;46.50;;;;;;1515611;76;740;-70
2022/09/06 04:44:18;;;;;;;;;;;25.30;46.40;;;;;;1538281;76;739;-71
2022/09/06 04:46:21;;;;;;;;;;;25.30;46.40;;;;;;1519173;74;228417;-60
2022/09/06 04:48:23;;;;;;;;;;;25.30;46.40;;;;;;1568110;74;1607;-58
2022/09/06 04:50:24;;;;;;;;;;;25.30;46.50;;;;;;1556982;74;734;-57
2022/09/06 04:52:26;;;;;;;;;;;25.30;46.50;;;;;;1558608;74;873;-60
2022/09/06 04:54:28;;;;;;;;;;;25.20;46.40;;;;;;1587257;73;1941;-60
2022/09/06 04:56:30;;;;;;;;;;;25.20;46.40;;;;;;1577012;73;723;-60
2022/09/06 04:58:32;;;;;;;;;;;25.30;46.40;;;;;;1578577;73;724;-59
2022/09/06 05:00:34;;;;;;;;;;;25.30;46.40;;;;;;1579408;73;853;-60
2022/09/06 05:02:36;;;;;;;;;;;25.30;46.30;;;;;;1599853;73;1521;-58
2022/09/06 05:04:38;;;;;;;;;;;25.30;46.30;;;;;;1587069;73;1107;-60
2022/09/06 05:06:41;;;;;;;;;;;25.30;46.30;;;;;;1578755;73;790;-57
2022/09/06 05:08:43;;;;;;;;;;;25.30;46.30;;;;;;1583092;73;734;-60
2022/09/06 05:10:45;;;;;;;;;;;25.30;46.30;;;;;;1583209;73;807;-59
2022/09/06 05:12:48;;;;;;;;;;;25.30;46.20;;;;;;1583363;73;765;-60
2022/09/06 05:14:50;;;;;;;;;;;25.40;46.20;;;;;;1586029;73;1929;-60
2022/09/06 05:16:53;;;;;;;;;;;25.30;46.20;;;;;;1582638;73;1612;-57
2022/09/06 05:18:55;;;;;;;;;;;25.30;46.20;;;;;;1575311;73;805;-61
2022/09/06 05:20:57;;;;;;;;;;;25.30;46.20;;;;;;1581148;73;735;-61
2022/09/06 05:23:00;;;;;;;;;;;25.30;46.20;;;;;;1575749;73;720;-56
2022/09/06 05:25:02;;;;;;;;;;;25.40;46.10;;;;;;1578579;73;1120;-60
2022/09/06 05:27:04;;;;;;;;;;;25.30;46.20;;;;;;1571353;73;793;-58
2022/09/06 05:29:06;;;;;;;;;;;25.40;46.20;;;;;;1577834;73;675;-57
2022/09/06 05:31:09;;;;;;;;;;;25.30;46.10;;;;;;1585661;73;1480;-58
2022/09/06 05:33:12;;;;;;;;;;;25.40;46.10;;;;;;1584165;73;1986;-61
2022/09/06 05:35:13;;;;;;;;;;;25.40;46.10;;;;;;1578295;73;1924;-60
2022/09/06 05:37:15;;;;;;;;;;;25.30;46.10;;;;;;1587430;73;729;-60
2022/09/06 05:39:20;;;;;;;;;;;25.40;46.20;;;;;;1582408;73;775;-58
2022/09/06 05:41:21;;;;;;;;;;;25.40;46.20;;;;;;1589645;73;1746;-56
2022/09/06 05:43:23;;;;;;;;;;;25.30;46.10;;;;;;1580186;73;1116;-59
2022/09/06 05:45:25;;;;;;;;;;;25.30;46.20;;;;;;1572100;73;800;-61
2022/09/06 05:47:27;;;;;;;;;;;25.30;46.20;;;;;;1588277;73;783;-59
2022/09/06 05:49:29;;;;;;;;;;;25.30;46.20;;;;;;1581947;73;778;-59
2022/09/06 05:51:31;;;;;;;;;;;25.30;46.20;;;;;;1583934;73;954;-60
2022/09/06 05:53:37;;;;;;;;;;;25.30;46.30;;;;;;1582134;73;1933;-60
2022/09/06 05:55:38;;;;;;;;;;;25.40;46.20;;;;;;1577860;73;735;-59
2022/09/06 05:57:40;;;;;;;;;;;25.40;46.10;;;;;;1581101;73;1561;-58
2022/09/06 05:59:42;;;;;;;;;;;25.50;46.10;;;;;;1574466;73;800;-57
2022/09/06 06:01:49;;;;;;;;;;;25.40;46.10;;;;;;1587288;73;757;-61
2022/09/06 06:03:51;;;;;;;;;;;25.50;46.10;;;;;;1588338;73;2081;-57
2022/09/06 06:05:53;;;;;;;;;;;25.40;46.00;;;;;;1582540;73;705;-57
2022/09/06 06:07:56;;;;;;;;;;;25.50;46.20;;;;;;1574906;73;733;-56
2022/09/06 06:09:58;;;;;;;;;;;25.40;46.10;;;;;;1577095;73;789;-58
2022/09/06 06:12:00;;;;;;;;;;;25.50;46.00;;;;;;1565214;73;1560;-60
2022/09/06 06:14:03;;;;;;;;;;;25.50;46.00;;;;;;1575393;73;1954;-59
2022/09/06 06:16:06;;;;;;;;;;;25.50;45.90;;;;;;1588355;73;687;-59
2022/09/06 06:18:08;;;;;;;;;;;25.50;46.00;;;;;;1575864;73;1794;-58
2022/09/06 06:20:10;;;;;;;;;;;25.70;45.80;;;;;;1578524;73;807;-56
2022/09/06 06:22:12;;;;;;;;;;;25.60;45.80;;;;;;1577569;73;765;-59
2022/09/06 06:24:13;;;;;;;;;;;25.50;46.00;;;;;;1581730;73;1148;-60
2022/09/06 06:26:15;;;;;;;;;;;25.40;46.00;;;;;;1584559;73;1527;-59
2022/09/06 06:28:17;;;;;;;;;;;25.50;46.20;;;;;;1593137;73;783;-58
2022/09/06 06:30:19;;;;;;;;;;;25.40;46.20;;;;;;1582666;73;759;-59
2022/09/06 06:32:21;;;;;;;;;;;25.40;46.30;;;;;;1571586;73;659;-56
2022/09/06 06:34:23;;;;;;;;;;;25.30;46.40;;;;;;1581916;73;1946;-58
2022/09/06 06:36:26;;;;;;;;;;;25.40;46.40;;;;;;1582095;73;798;-57
2022/09/06 06:38:31;;;;;;;;;;;25.30;46.40;;;;;;1575583;73;673;-59
2022/09/06 06:40:33;;;;;;;;;;;25.30;46.50;;;;;;1587147;73;1601;-61
2022/09/06 06:42:35;;;;;;;;;;;25.40;46.50;;;;;;1580587;73;820;-58
2022/09/06 06:44:37;;;;;;;;;;;25.30;46.50;;;;;;1594728;73;1173;-60
2022/09/06 06:46:40;;;;;;;;;;;25.30;46.50;;;;;;1585921;73;666;-60
2022/09/06 06:48:42;;;;;;;;;;;25.30;46.50;;;;;;1589237;73;745;-56
2022/09/06 06:50:44;;;;;;;;;;;25.40;46.50;;;;;;1570309;73;722;-57
2022/09/06 06:52:46;;;;;;;;;;;25.30;46.50;;;;;;1574909;73;645;-58
2022/09/06 06:54:48;;;;;;;;;;;25.30;46.50;;;;;;1583041;73;1954;-61
2022/09/06 06:56:50;;;;;;;;;;;25.30;46.50;;;;;;1575717;73;777;-60
2022/09/06 06:58:53;;;;;;;;;;;25.30;46.50;;;;;;1581711;73;735;-58
2022/09/06 07:00:55;;;;;;;;;;;25.20;46.50;;;;;;1579472;73;761;-58
2022/09/06 07:02:58;;;;;;;;;;;25.30;46.50;;;;;;1595330;73;791;-58
2022/09/06 07:05:00;;;;;;;;;;;25.20;46.50;;;;;;1577745;73;1059;-59
2022/09/06 07:07:01;;;;;;;;;;;25.30;46.50;;;;;;1581704;73;710;-57
2022/09/06 07:09:03;;;;;;;;;;;25.30;46.50;;;;;;1579051;73;1543;-61
2022/09/06 07:11:05;;;;;;;;;;;25.20;46.50;;;;;;1575035;73;760;-60
2022/09/06 07:13:07;;;;;;;;;;;25.30;46.50;;;;;;1580897;73;1137;-61
2022/09/06 07:15:09;;;;;;;;;;;25.20;46.50;;;;;;1589874;73;1938;-60
2022/09/06 07:17:11;;;;;;;;;;;25.30;46.50;;;;;;1578260;73;762;-59
2022/09/06 07:19:13;;;;;;;;;;;25.30;46.40;;;;;;1593502;73;790;-59
2022/09/06 07:21:15;;;;;;;;;;;25.40;46.40;;;;;;1580308;73;736;-59
2022/09/06 07:23:17;;;;;;;;;;;25.40;46.40;;;;;;1587233;73;1565;-56
2022/09/06 07:25:19;;;;;;;;;;;25.30;46.40;;;;;;1585045;73;794;-57
2022/09/06 07:27:21;;;;;;;;;;;25.30;46.50;;;;;;1586756;73;804;-58
2022/09/06 07:29:23;;;;;;;;;;;25.20;46.50;;;;;;1576996;73;787;-59
2022/09/06 07:31:25;;;;;;;;;;;25.20;46.50;;;;;;1555612;74;1372;-59
2022/09/06 07:33:27;;;;;;;;;;;25.20;46.50;;;;;;1550339;75;1131;-59
2022/09/06 07:35:29;;;;;;;;;;;25.20;46.60;;;;;;1538263;75;1924;-59
2022/09/06 07:37:31;;;;;;;;;;;25.20;46.60;;;;;;1554645;75;1564;-61
2022/09/06 07:39:35;;;;;;;;;;;25.10;46.60;;;;;;1564380;74;781;-59
2022/09/06 07:41:37;;;;;;;;;;;25.20;46.70;;;;;;1550745;74;1675;-58
2022/09/06 07:43:38;;;;;;;;;;;25.10;46.70;;;;;;1539220;75;1145;-57
2022/09/06 07:45:40;;;;;;;;;;;25.10;46.80;;;;;;1534551;75;717;-59
2022/09/06 07:47:42;;;;;;;;;;;25.10;46.90;;;;;;1576282;73;803;-59
2022/09/06 07:49:44;;;;;;;;;;;25.10;46.90;;;;;;1533544;75;804;-59
2022/09/06 07:51:46;;;;;;;;;;;25.10;46.90;;;;;;1540797;75;1654;-60
2022/09/06 07:53:50;;;;;;;;;;;25.10;46.90;;;;;;1536567;75;1162;-60
2022/09/06 07:55:52;;;;;;;;;;;25.10;47.00;;;;;;1574419;73;1911;-60
2022/09/06 07:57:54;;;;;;;;;;;25.10;47.00;;;;;;1544035;75;757;-58
2022/09/06 07:59:56;;;;;;;;;;;25.10;47.00;;;;;;1567880;75;792;-56
2022/09/06 08:01:58;;;;;;;;;;;25.10;47.00;;;;;;1565050;74;721;-60
2022/09/06 08:04:00;;;;;;;;;;;25.20;47.00;;;;;;1552117;75;1131;-59
2022/09/06 08:06:02;;;;;;;;;;;25.20;47.00;;;;;;1554506;75;1694;-56
2022/09/06 08:08:04;;;;;;;;;;;25.30;47.00;;;;;;1569480;73;743;-60
2022/09/06 08:10:06;;;;;;;;;;;25.30;47.00;;;;;;1572823;73;834;-59
2022/09/06 08:12:08;;;;;;;;;;;25.10;47.10;;;;;;1582910;73;800;-57
2022/09/06 08:14:10;;;;;;;;;;;25.20;47.10;;;;;;1531981;75;1075;-56
2022/09/06 08:16:12;;;;;;;;;;;25.10;47.10;;;;;;1560820;75;1939;-60
2022/09/06 08:18:14;;;;;;;;;;;25.20;47.10;;;;;;1576035;73;1575;-61
2022/09/06 08:20:16;;;;;;;;;;;25.10;47.10;;;;;;1583445;73;766;-61
2022/09/06 08:22:18;;;;;;;;;;;25.20;47.20;;;;;;1541406;75;777;-58
2022/09/06 08:24:20;;;;;;;;;;;25.20;47.30;;;;;;1535767;75;1146;-59
2022/09/06 08:26:22;;;;;;;;;;;25.20;47.30;;;;;;1564446;74;729;-58
2022/09/06 08:28:24;;;;;;;;;;;25.10;47.40;;;;;;1579911;73;759;-58
2022/09/06 08:30:28;;;;;;;;;;;25.20;47.40;;;;;;1573576;73;772;-55
2022/09/06 08:32:31;;;;;;;;;;;25.20;47.60;;;;;;1584524;73;1518;-58
2022/09/06 08:34:33;;;;;;;;;;;25.20;47.60;;;;;;1571893;73;1954;-58
2022/09/06 08:36:35;;;;;;;;;;;25.20;47.80;;;;;;1575363;73;733;-58
2022/09/06 08:38:37;;;;;;;;;;;25.20;47.90;;;;;;1591835;73;668;-57
2022/09/06 08:40:39;;;;;;;;;;;25.30;47.70;;;;;;1549821;75;751;-57
2022/09/06 08:42:42;;;;;;;;;;;25.20;47.80;;;;;;1586501;73;682;-61
2022/09/06 08:44:46;;;;;;;;;;;25.30;47.80;;;;;;1579143;73;1178;-60
2022/09/06 08:46:50;;;;;;;;;;;25.30;48.00;;;;;;1594666;73;1584;-60
2022/09/06 08:48:52;;;;;;;;;;;25.30;48.10;;;;;;1578891;73;808;-60
2022/09/06 08:50:58;;;;;;;;;;;25.40;48.30;;;;;;1578180;73;716;-58
2022/09/06 08:53:01;;;;;;;;;;;25.30;48.40;;;;;;1574193;73;1916;-59
2022/09/06 08:55:17;;;;;;;;;;;25.40;48.80;;;;;;1527363;75;1943;-59
2022/09/06 08:57:23;;;;;;;;;;;25.50;48.70;;;;;;1573468;73;1630;-60
2022/09/06 08:59:25;;;;;;;;;;;25.30;49.20;;;;;;1582444;73;726;-58
2022/09/06 09:01:29;;;;;;;;;;;25.40;48.70;;;;;;1588808;73;1607;-56
2022/09/06 09:03:32;;;;;;;;;;;25.30;48.90;;;;;;1569510;73;1135;-58
2022/09/06 09:05:34;;;;;;;;;;;25.30;49.30;;;;;;1585194;73;885;-60
2022/09/06 09:07:40;;;;;;;;;;;25.40;49.00;;;;;;1584296;73;740;-60
2022/09/06 09:09:42;;;;;;;;;;;25.40;49.40;;;;;;1574046;73;691;-59
2022/09/06 09:11:45;;;;;;;;;;;25.30;50.30;;;;;;1580287;73;726;-60
2022/09/06 09:13:49;;;;;;;;;;;25.30;49.70;;;;;;1570170;73;1138;-60
2022/09/06 09:15:50;;;;;;;;;;;25.40;50.00;;;;;;1531388;75;1939;-59
2022/09/06 09:17:52;;;;;;;;;;;25.40;49.30;;;;;;1544697;76;780;-58
2022/09/06 09:19:55;;;;;;;;;;;25.40;49.50;;;;;;1543890;75;685;-60
2022/09/06 09:21:57;;;;;;;;;;;25.40;49.40;;;;;;1539144;75;796;-60
2022/09/06 09:24:00;;;;;;;;;;;25.40;49.40;;;;;;1547214;75;1131;-58
2022/09/06 09:26:04;;;;;;;;;;;25.50;49.40;;;;;;1581656;73;1640;-61
2022/09/06 09:28:06;;;;;;;;;;;25.50;49.30;;;;;;1586705;73;782;-58
2022/09/06 09:30:08;;;;;;;;;;;25.50;49.20;;;;;;1589326;73;1675;-58
2022/09/06 09:32:10;;;;;;;;;;;25.60;49.10;;;;;;1590233;73;914;-61
2022/09/06 09:34:12;;;;;;;;;;;25.50;49.40;;;;;;1577200;73;1131;-59
2022/09/06 09:36:14;;;;;;;;;;;25.60;49.20;;;;;;1577114;73;1934;-59
2022/09/06 09:38:20;;;;;;;;;;;25.60;49.30;;;;;;1581698;73;788;-59
2022/09/06 09:40:27;;;;;;;;;;;25.70;49.10;;;;;;1596380;73;1850;-61
2022/09/06 09:42:30;;;;;;;;;;;25.60;49.40;;;;;;1578118;73;805;-58
2022/09/06 09:44:32;;;;;;;;;;;25.60;49.40;;;;;;1583972;73;1187;-58
2022/09/06 09:46:36;;;;;;;;;;;25.70;49.10;;;;;;1574334;73;786;-61
2022/09/06 09:48:38;;;;;;;;;;;25.70;49.50;;;;;;1580279;73;1719;-61
2022/09/06 09:50:39;;;;;;;;;;;25.70;49.30;;;;;;1571957;73;783;-58
2022/09/06 09:52:44;;;;;;;;;;;25.70;48.90;;;;;;1530828;75;723;-61
2022/09/06 09:54:46;;;;;;;;;;;25.80;49.10;;;;;;1564019;74;1143;-58
2022/09/06 09:56:51;;;;;;;;;;;25.80;49.90;;;;;;1522552;76;1546;-61
2022/09/06 09:58:54;;;;;;;;;;;25.70;49.70;;;;;;1566859;74;779;-58
2022/09/06 10:01:08;;;;;;;;;;;25.70;49.40;;;;;;1591557;73;773;-61
2022/09/06 10:03:11;;;;;;;;;;;25.70;49.70;;;;;;1567876;73;1167;-59
2022/09/06 10:05:15;;;;;;;;;;;25.80;49.10;;;;;;1543067;75;741;-59
2022/09/06 10:07:18;;;;;;;;;;;25.90;48.60;;;;;;1568544;73;696;-59
2022/09/06 10:09:30;;;;;;;;;;;25.90;48.30;;;;;;1577982;73;2427;-58
2022/09/06 10:11:42;;;;;;;;;;;25.90;48.30;;;;;;1582126;73;1544;-56
2022/09/06 10:13:44;;;;;;;;;;;25.90;48.10;;;;;;1567284;73;1430;-58
2022/09/06 10:15:46;;;;;;;;;;;25.90;47.90;;;;;;1580113;73;1928;-60
2022/09/06 10:17:49;;;;;;;;;;;26.00;48.40;;;;;;1585756;73;720;-60
2022/09/06 10:19:51;;;;;;;;;;;26.00;48.30;;;;;;1582016;73;745;-58
2022/09/06 10:21:54;;;;;;;;;;;26.10;48.20;;;;;;1571449;73;710;-58
2022/09/06 10:24:09;;;;;;;;;;;26.10;48.10;;;;;;1586474;73;1146;-60
2022/09/06 10:26:13;;;;;;;;;;;26.10;47.90;;;;;;1536252;75;1605;-58
2022/09/06 10:28:22;;;;;;;;;;;26.10;47.80;;;;;;1561552;74;731;-58
2022/09/06 10:30:24;;;;;;;;;;;26.10;47.90;;;;;;1559391;74;760;-58
2022/09/06 10:32:42;;;;;;;;;;;26.10;47.80;;;;;;1545543;75;670;-58
2022/09/06 10:34:45;;;;;;;;;;;26.10;47.80;;;;;;1586205;73;1161;-59
2022/09/06 10:37:04;;;;;;;;;;;26.10;47.60;;;;;;1574360;73;2072;-59
2022/09/06 10:39:20;;;;;;;;;;;26.20;47.60;;;;;;1577785;73;1518;-61
2022/09/06 10:41:32;;;;;;;;;;;26.20;47.60;;;;;;1582455;73;1121;-59
2022/09/06 10:43:36;;;;;;;;;;;26.20;47.40;;;;;;1583023;73;1200;-59
2022/09/06 10:45:39;;;;;;;;;;;26.20;47.60;;;;;;1575671;73;1896;-58
2022/09/06 10:47:46;;;;;;;;;;;26.20;47.40;;;;;;1572791;73;2151;-59
2022/09/06 10:49:48;;;;;;;;;;;26.20;47.80;;;;;;1518749;76;1871;-59
2022/09/06 10:51:51;;;;;;;;;;;26.10;47.70;;;;;;1521865;76;714;-60
2022/09/06 10:53:54;;;;;;;;;;;26.20;47.90;;;;;;1526209;76;1557;-60
2022/09/06 10:56:01;;;;;;;;;;;26.10;47.70;;;;;;1514299;78;1949;-60
2022/09/06 10:58:03;;;;;;;;;;;26.00;48.70;;;;;;1528085;77;2115;-61
2022/09/06 11:00:15;;;;;;;;;;;26.20;48.40;;;;;;1526457;76;770;-61
2022/09/06 11:02:11;;;;;;;;;;;26.20;48.10;;;;;;1519455;76;1603;-59
2022/09/06 11:04:18;;;;;;;;;;;26.30;47.90;;;;;;1550606;75;1201;-60
2022/09/06 11:06:18;;;;;;;;;;;26.30;47.70;;;;;;1500274;78;1645;-60
2022/09/06 11:08:24;;;;;;;;;;;26.20;48.10;;;;;;1521666;76;1393;-60
2022/09/06 11:10:30;;;;;;;;;;;26.30;47.60;;;;;;1545555;75;797;-59
2022/09/06 11:12:36;;;;;;;;;;;26.10;47.80;;;;;;1510986;77;843;-60
2022/09/06 11:14:38;;;;;;;;;;;26.10;47.90;;;;;;1511953;77;1147;-60
2022/09/06 11:16:42;;;;;;;;;;;26.00;47.80;;;;;;1518154;77;1944;-60
2022/09/06 11:18:45;;;;;;;;;;;26.00;47.80;;;;;;1507407;77;1898;-59
2022/09/06 11:20:52;;;;;;;;;;;26.10;47.70;;;;;;1500938;77;720;-60
2022/09/06 11:22:58;;;;;;;;;;;26.10;48.10;;;;;;1511656;76;1692;-58
2022/09/06 11:25:20;;;;;;;;;;;26.00;48.50;;;;;;1525757;75;1962;-58
2022/09/06 11:27:29;;;;;;;;;;;26.00;48.80;;;;;;1500145;77;2101;-59
2022/09/06 11:29:31;;;;;;;;;;;26.00;49.10;;;;;;1515146;77;1766;-61
2022/09/06 11:31:34;;;;;;;;;;;25.90;48.40;;;;;;1519726;77;747;-60
2022/09/06 11:33:38;;;;;;;;;;;25.90;48.50;;;;;;1509936;77;1143;-60
2022/09/06 11:35:39;;;;;;;;;;;26.00;49.30;;;;;;1517497;78;1924;-60
2022/09/06 11:37:48;;;;;;;;;;;26.00;48.90;;;;;;1523042;76;619;-57
2022/09/06 11:39:48;;;;;;;;;;;26.00;48.90;;;;;;1517833;77;1691;-62
2022/09/06 11:41:50;;;;;;;;;;;26.10;48.60;;;;;;1499378;79;1184;-57
2022/09/06 11:43:52;;;;;;;;;;;26.10;48.40;;;;;;1513910;77;1115;-59
2022/09/06 11:45:54;;;;;;;;;;;26.10;48.70;;;;;;1511604;78;826;-58
2022/09/06 11:47:56;;;;;;;;;;;26.10;48.60;;;;;;1515831;76;794;-59
2022/09/06 11:49:57;;;;;;;;;;;26.10;48.80;;;;;;1517852;77;1385;-59
2022/09/06 11:51:59;;;;;;;;;;;26.00;48.60;;;;;;1519457;76;813;-61
2022/09/06 11:54:05;;;;;;;;;;;26.00;48.90;;;;;;1515417;77;1189;-59
2022/09/06 11:56:09;;;;;;;;;;;26.00;48.70;;;;;;1518536;77;1932;-61
2022/09/06 11:58:19;;;;;;;;;;;26.00;48.70;;;;;;1522302;77;750;-58
2022/09/06 12:00:26;;;;;;;;;;;26.00;48.40;;;;;;1521065;76;758;-58
2022/09/06 12:02:29;;;;;;;;;;;26.10;48.40;;;;;;1513825;77;1615;-57
2022/09/06 12:04:49;;;;;;;;;;;26.00;48.40;;;;;;1519148;77;1635;-57
2022/09/06 12:07:09;;;;;;;;;;;26.10;49.00;;;;;;1523039;76;771;-58
2022/09/06 12:09:31;;;;;;;;;;;26.00;49.40;;;;;;1516279;77;698;-59
2022/09/06 12:11:43;;;;;;;;;;;26.00;48.70;;;;;;1515032;77;1794;-59
2022/09/06 12:13:47;;;;;;;;;;;26.10;48.40;;;;;;1519588;77;1222;-59
2022/09/06 12:15:53;;;;;;;;;;;26.10;48.20;;;;;;1514762;77;1909;-61